createdAt,value
2022-11-26T00:07:47.474Z,52.3
2022-11-26T00:13:24.877Z,52.3
2022-11-26T00:18:47.376Z,52.3
2022-11-26T00:24:24.843Z,52.3
2022-11-26T00:29:47.217Z,52.2
2022-11-26T00:35:25.299Z,52.1
2022-11-26T00:41:03.117Z,52.1
2022-11-26T00:46:43.156Z,52.1
2022-11-26T00:57:44.455Z,52
2022-11-26T01:03:22.222Z,52
2022-11-26T01:14:28.390Z,51.9
2022-11-26T01:20:05.538Z,51.9
2022-11-26T01:25:46.712Z,51.8
2022-11-26T01:31:12.551Z,51.8
2022-11-26T01:36:50.306Z,51.8
2022-11-26T01:42:28.316Z,51.7
2022-11-26T01:48:06.435Z,51.6
2022-11-26T01:53:44.370Z,51.6
2022-11-26T01:59:12.671Z,51.6
2022-11-26T02:04:35.834Z,51.6
2022-11-26T02:09:58.271Z,51.5
2022-11-26T02:15:35.839Z,51.4
2022-11-26T02:21:13.592Z,51.4
2022-11-26T02:26:51.021Z,51.4
2022-11-26T02:32:13.604Z,51.4
2022-11-26T02:37:41.920Z,51.3
2022-11-26T02:43:03.555Z,51.3
2022-11-26T02:48:10.167Z,51.3
2022-11-26T02:53:52.372Z,51.2
2022-11-26T02:59:30.070Z,51.2
2022-11-26T03:05:09.320Z,51.1
2022-11-26T03:10:31.733Z,51.1
2022-11-26T03:16:10.436Z,51.1
2022-11-26T03:21:32.605Z,51
2022-11-26T03:26:55.465Z,51
2022-11-26T03:32:17.696Z,50.9
2022-11-26T03:37:39.412Z,50.9
2022-11-26T03:43:17.514Z,50.9
2022-11-26T03:48:55.693Z,50.8
2022-11-26T03:54:17.660Z,50.8
2022-11-26T03:59:55.924Z,50.8
2022-11-26T04:05:34.230Z,50.8
2022-11-26T04:10:56.786Z,50.7
2022-11-26T04:16:34.630Z,50.7
2022-11-26T04:22:16.659Z,50.6
2022-11-26T04:27:54.249Z,50.6
2022-11-26T04:33:31.985Z,50.6
2022-11-26T04:39:14.913Z,50.5
2022-11-26T04:44:53.137Z,50.5
2022-11-26T04:50:33.898Z,50.4
2022-11-26T04:56:14.767Z,50.4
2022-11-26T05:01:56.624Z,50.4
2022-11-26T05:07:34.850Z,50.3
2022-11-26T05:12:57.102Z,50.3
2022-11-26T05:18:19.175Z,50.3
2022-11-26T05:23:41.735Z,50.3
2022-11-26T05:29:04.386Z,50.1
2022-11-26T05:34:42.055Z,50.1
2022-11-26T05:40:05.524Z,50.1
2022-11-26T05:45:48.893Z,50.1
2022-11-26T05:50:55.802Z,50
2022-11-26T05:56:33.705Z,49.9
2022-11-26T06:02:15.199Z,49.9
2022-11-26T06:07:58.195Z,49.9
2022-11-26T06:13:20.810Z,49.8
2022-11-26T06:18:43.267Z,49.8
2022-11-26T06:24:14.120Z,49.8
2022-11-26T06:29:56.576Z,49.8
2022-11-26T06:35:40.591Z,49.7
2022-11-26T06:41:03.011Z,49.6
2022-11-26T06:46:41.558Z,49.6
2022-11-26T06:52:24.214Z,49.6
2022-11-26T06:58:02.908Z,49.6
2022-11-26T07:03:44.621Z,49.5
2022-11-26T07:09:22.850Z,49.5
2022-11-26T07:15:04.613Z,49.4
2022-11-26T07:20:43.199Z,49.4
2022-11-26T07:26:21.497Z,49.3
2022-11-26T07:31:49.531Z,49.3
2022-11-26T07:37:31.231Z,49.3
2022-11-26T07:43:09.958Z,49.2
2022-11-26T07:48:50.067Z,49.1
2022-11-26T07:54:28.329Z,49.1
2022-11-26T08:00:05.212Z,49.1
2022-11-26T08:05:44.044Z,49
2022-11-26T08:11:27.371Z,49
2022-11-26T08:17:05.662Z,48.9
2022-11-26T08:22:46.913Z,48.9
2022-11-26T08:29:01.578Z,48.9
2022-11-26T08:34:39.609Z,48.8
2022-11-26T08:40:49.635Z,48.8
2022-11-26T08:46:41.585Z,48.7
2022-11-26T08:52:19.500Z,48.7
2022-11-26T08:58:18.219Z,48.6
2022-11-26T09:03:59.420Z,48.6
2022-11-26T09:09:37.096Z,48.6
2022-11-26T09:15:18.544Z,48.5
2022-11-26T09:20:57.449Z,48.4
2022-11-26T09:26:20.218Z,48.4
2022-11-26T09:32:28.207Z,48.3
2022-11-26T09:38:08.623Z,48.3
2022-11-26T09:43:47.322Z,48.2
2022-11-26T09:49:35.633Z,48.2
2022-11-26T09:55:14.363Z,48.1
2022-11-26T10:00:56.703Z,48
2022-11-26T10:06:34.312Z,47.9
2022-11-26T10:12:24.589Z,47.9
2022-11-26T10:18:33.062Z,47.8
2022-11-26T10:24:22.256Z,47.8
2022-11-26T10:30:00.663Z,47.7
2022-11-26T10:35:44.815Z,47.7
2022-11-26T10:41:27.378Z,47.6
2022-11-26T10:47:06.999Z,47.6
2022-11-26T10:53:06.791Z,47.6
2022-11-26T10:58:29.279Z,47.5
2022-11-26T11:04:42.481Z,47.4
2022-11-26T11:10:21.108Z,47.4
2022-11-26T11:16:04.351Z,47.2
2022-11-26T11:21:27.536Z,47.6
2022-11-26T11:27:41.766Z,48.1
2022-11-26T11:33:19.510Z,48.5
2022-11-26T11:38:58.272Z,48.9
2022-11-26T11:44:35.267Z,49.3
2022-11-26T11:50:12.882Z,49.6
2022-11-26T11:55:50.159Z,50
2022-11-26T12:01:26.592Z,50.3
2022-11-26T12:06:55.395Z,50.7
2022-11-26T12:12:37.301Z,51
2022-11-26T12:18:22.485Z,51.3
2022-11-26T12:24:04.295Z,51.6
2022-11-26T12:29:46.355Z,51.8
2022-11-26T12:34:58.847Z,52.1
2022-11-26T12:40:43.175Z,52.2
2022-11-26T12:51:45.320Z,52.4
2022-11-26T12:56:52.297Z,52.4
2022-11-26T13:02:38.008Z,52.4
2022-11-26T13:08:56.480Z,52.4
2022-11-26T13:41:33.272Z,52.3
2022-11-26T13:47:12.129Z,52.3
2022-11-26T13:52:34.680Z,52.3
2022-11-26T13:58:15.561Z,52.3
2022-11-26T14:03:45.418Z,52.3
2022-11-26T14:09:28.776Z,52.2
2022-11-26T14:14:35.276Z,52.2
2022-11-26T14:20:13.446Z,52.1
2022-11-26T14:25:55.632Z,52.1
2022-11-26T14:31:38.118Z,52.1
2022-11-26T14:37:16.138Z,52.1
2022-11-26T14:42:56.232Z,52.1
2022-11-26T14:48:35.125Z,52
2022-11-26T15:05:02.371Z,51.9
2022-11-26T15:10:39.856Z,51.9
2022-11-26T15:16:21.899Z,51.8
2022-11-26T15:21:59.423Z,51.8
2022-11-26T15:27:40.632Z,51.8
2022-11-26T15:33:19.126Z,51.8
2022-11-26T15:38:57.796Z,51.7
2022-11-26T15:44:40.770Z,51.6
2022-11-26T15:50:02.111Z,51.6
2022-11-26T15:55:54.669Z,51.6
2022-11-26T16:01:39.896Z,51.5
2022-11-26T16:07:23.688Z,51.5
2022-11-26T16:13:08.598Z,51.4
2022-11-26T16:18:32.385Z,51.4
2022-11-26T16:24:10.645Z,51.4
2022-11-26T16:29:51.920Z,51.4
2022-11-26T16:36:05.126Z,51.3
2022-11-26T16:41:48.361Z,51.3
2022-11-26T16:47:26.932Z,51.3
2022-11-26T16:53:06.257Z,51.2
2022-11-26T16:58:46.635Z,51.2
2022-11-26T17:04:09.203Z,51.1
2022-11-26T17:09:52.454Z,51.1
2022-11-26T17:15:30.901Z,51.1
2022-11-26T17:21:09.530Z,51.1
2022-11-26T17:26:35.579Z,51
2022-11-26T17:32:02.363Z,50.9
2022-11-26T17:37:42.578Z,50.9
2022-11-26T17:43:09.638Z,50.9
2022-11-26T17:49:00.155Z,50.9
2022-11-26T17:54:22.903Z,50.8
2022-11-26T17:59:51.219Z,50.8
2022-11-26T18:10:52.350Z,50.8
2022-11-26T18:16:14.347Z,50.7
2022-11-26T18:21:57.620Z,50.7
2022-11-26T18:27:34.420Z,50.6
2022-11-26T18:33:02.623Z,50.6
2022-11-26T18:38:41.026Z,50.6
2022-11-26T18:44:36.842Z,50.5
2022-11-26T18:50:20.583Z,50.5
2022-11-26T18:55:43.578Z,50.4
2022-11-26T19:01:22.273Z,50.4
2022-11-26T19:07:04.848Z,50.4
2022-11-26T19:12:42.777Z,50.3
2022-11-26T19:18:20.781Z,50.3
2022-11-26T19:24:02.725Z,50.3
2022-11-26T19:29:44.975Z,50.3
2022-11-26T19:35:23.766Z,50.2
2022-11-26T19:41:02.141Z,50.1
2022-11-26T19:46:46.216Z,50.1
2022-11-26T19:52:24.552Z,50.1
2022-11-26T19:58:07.997Z,50.1
2022-11-26T20:03:53.709Z,50
2022-11-26T20:09:16.582Z,49.9
2022-11-26T20:14:42.915Z,49.9
2022-11-26T20:20:26.675Z,50.6
2022-11-26T20:26:09.371Z,51.9
2022-11-26T20:31:50.423Z,53.3
2022-11-26T20:37:29.091Z,54.9
2022-11-26T20:43:07.850Z,56.5
2022-11-26T20:48:48.250Z,58.2
2022-11-26T20:54:31.304Z,59.5
2022-11-26T20:59:59.341Z,59.6
2022-11-26T21:05:22.607Z,59.6
2022-11-26T21:10:47.372Z,59.6
2022-11-26T21:16:31.172Z,59.5
2022-11-26T21:22:00.624Z,59.5
2022-11-26T21:27:38.319Z,59.4
2022-11-26T21:33:07.610Z,59.4
2022-11-26T21:38:46.599Z,59.4
2022-11-26T21:44:24.251Z,59.3
2022-11-26T21:50:03.294Z,59.3
2022-11-26T21:55:25.221Z,59.3
2022-11-26T22:01:03.692Z,59.2
2022-11-26T22:06:43.398Z,59.1
2022-11-26T22:12:21.383Z,59.1
2022-11-26T22:17:44.723Z,59.1
2022-11-26T22:23:22.776Z,59
2022-11-26T22:28:30.217Z,59
2022-11-26T22:34:08.606Z,58.9
2022-11-26T22:39:49.874Z,58.9
2022-11-26T22:45:29.896Z,58.9
2022-11-26T22:51:08.497Z,58.8
2022-11-26T22:56:30.732Z,58.8
2022-11-26T23:02:14.391Z,58.7
2022-11-26T23:07:38.402Z,58.7
2022-11-26T23:13:17.179Z,58.6
2022-11-26T23:28:44.930Z,58.5
2022-11-26T23:34:23.025Z,58.4
2022-11-26T23:40:01.375Z,58.4
2022-11-26T23:45:43.418Z,58.4
2022-11-26T23:51:07.064Z,58.3
2022-11-26T23:56:45.126Z,58.3
